sensor_id;sensor_type;location;lat;lon;timestamp;pressure;altitude;pressure_sealevel;temperature;humidity
65329;BME280;51941;52.210;5.158;2023-04-10T00:01:08;102010.94;;;9.51;75.95
65329;BME280;51941;52.210;5.158;2023-04-10T00:03:35;101989.69;;;9.31;75.91
65329;BME280;51941;52.210;5.158;2023-04-10T00:06:02;102017.44;;;9.48;76.22
65329;BME280;51941;52.210;5.158;2023-04-10T00:08:30;101968.19;;;9.13;76.67
65329;BME280;51941;52.210;5.158;2023-04-10T00:10:58;101990.50;;;9.32;76.62
65329;BME280;51941;52.210;5.158;2023-04-10T00:13:25;101994.44;;;9.42;76.91
65329;BME280;51941;52.210;5.158;2023-04-10T00:15:51;101970.78;;;9.28;77.37
65329;BME280;51941;52.210;5.158;2023-04-10T00:18:18;101972.00;;;9.32;77.11
65329;BME280;51941;52.210;5.158;2023-04-10T00:20:45;101988.16;;;9.43;76.62
65329;BME280;51941;52.210;5.158;2023-04-10T00:23:11;101951.81;;;9.17;78.10
65329;BME280;51941;52.210;5.158;2023-04-10T00:25:38;101977.72;;;9.35;78.40
65329;BME280;51941;52.210;5.158;2023-04-10T00:28:06;101967.78;;;9.37;78.45
65329;BME280;51941;52.210;5.158;2023-04-10T00:30:33;101964.53;;;9.35;78.69
65329;BME280;51941;52.210;5.158;2023-04-10T00:32:59;101963.88;;;9.33;78.61
65329;BME280;51941;52.210;5.158;2023-04-10T00:35:26;101958.59;;;9.33;78.69
65329;BME280;51941;52.210;5.158;2023-04-10T00:37:53;101942.06;;;9.18;78.82
65329;BME280;51941;52.210;5.158;2023-04-10T00:40:21;101952.06;;;9.29;79.05
65329;BME280;51941;52.210;5.158;2023-04-10T00:42:47;101956.13;;;9.25;79.88
65329;BME280;51941;52.210;5.158;2023-04-10T00:45:16;101952.28;;;9.28;79.63
65329;BME280;51941;52.210;5.158;2023-04-10T00:47:42;101926.94;;;9.12;79.76
65329;BME280;51941;52.210;5.158;2023-04-10T00:50:10;101950.22;;;9.23;80.03
65329;BME280;51941;52.210;5.158;2023-04-10T00:52:37;101952.03;;;9.23;79.85
65329;BME280;51941;52.210;5.158;2023-04-10T00:55:04;101945.34;;;9.20;79.80
65329;BME280;51941;52.210;5.158;2023-04-10T00:57:32;101943.69;;;9.19;80.21
65329;BME280;51941;52.210;5.158;2023-04-10T00:59:59;101943.03;;;9.17;80.78
65329;BME280;51941;52.210;5.158;2023-04-10T01:02:27;101919.13;;;8.97;81.13
65329;BME280;51941;52.210;5.158;2023-04-10T01:04:54;101943.88;;;9.17;80.87
65329;BME280;51941;52.210;5.158;2023-04-10T01:07:29;101939.59;;;9.16;80.48
65329;BME280;51941;52.210;5.158;2023-04-10T01:10:14;101942.41;;;9.15;81.23
65329;BME280;51941;52.210;5.158;2023-04-10T01:12:52;101933.84;;;9.13;81.17
65329;BME280;51941;52.210;5.158;2023-04-10T01:15:22;101927.16;;;9.10;81.29
65329;BME280;51941;52.210;5.158;2023-04-10T01:18:06;101917.78;;;9.08;81.62
65329;BME280;51941;52.210;5.158;2023-04-10T01:20:39;101921.63;;;9.05;82.42
65329;BME280;51941;52.210;5.158;2023-04-10T01:23:25;101912.88;;;9.05;83.44
65329;BME280;51941;52.210;5.158;2023-04-10T01:26:02;101913.06;;;9.03;83.75
65329;BME280;51941;52.210;5.158;2023-04-10T01:28:56;101904.56;;;9.01;83.91
65329;BME280;51941;52.210;5.158;2023-04-10T01:31:33;101911.88;;;9.06;83.44
65329;BME280;51941;52.210;5.158;2023-04-10T01:34:06;101900.13;;;9.08;83.07
65329;BME280;51941;52.210;5.158;2023-04-10T01:36:36;101866.47;;;8.89;82.56
65329;BME280;51941;52.210;5.158;2023-04-10T01:39:07;101867.50;;;8.88;82.32
65329;BME280;51941;52.210;5.158;2023-04-10T01:41:35;101890.53;;;9.01;83.14
65329;BME280;51941;52.210;5.158;2023-04-10T01:44:06;101896.84;;;9.06;83.76
65329;BME280;51941;52.210;5.158;2023-04-10T01:46:36;101889.75;;;9.07;83.61
65329;BME280;51941;52.210;5.158;2023-04-10T01:49:04;101892.38;;;9.07;83.30
65329;BME280;51941;52.210;5.158;2023-04-10T01:51:31;101859.56;;;8.88;83.37
65329;BME280;51941;52.210;5.158;2023-04-10T01:54:02;101886.63;;;8.97;84.74
65329;BME280;51941;52.210;5.158;2023-04-10T01:56:31;101880.38;;;9.04;83.74
65329;BME280;51941;52.210;5.158;2023-04-10T01:58:58;101875.09;;;9.04;83.63
65329;BME280;51941;52.210;5.158;2023-04-10T02:01:26;101855.91;;;8.89;84.06
65329;BME280;51941;52.210;5.158;2023-04-10T02:03:53;101881.19;;;9.05;84.09
65329;BME280;51941;52.210;5.158;2023-04-10T02:06:27;101863.47;;;8.92;84.25
65329;BME280;51941;52.210;5.158;2023-04-10T02:08:59;101875.50;;;9.01;84.20
65329;BME280;51941;52.210;5.158;2023-04-10T02:11:37;101879.56;;;9.04;84.26
65329;BME280;51941;52.210;5.158;2023-04-10T02:14:10;101829.41;;;8.69;84.49
65329;BME280;51941;52.210;5.158;2023-04-10T02:16:40;101879.78;;;9.02;84.59
65329;BME280;51941;52.210;5.158;2023-04-10T02:19:09;101831.50;;;8.80;84.35
65329;BME280;51941;52.210;5.158;2023-04-10T02:21:36;101875.50;;;9.01;84.71
65329;BME280;51941;52.210;5.158;2023-04-10T02:24:06;101830.66;;;8.73;84.90
65329;BME280;51941;52.210;5.158;2023-04-10T02:26:43;101870.78;;;8.97;85.81
65329;BME280;51941;52.210;5.158;2023-04-10T02:29:10;101873.44;;;8.97;85.39
65329;BME280;51941;52.210;5.158;2023-04-10T02:31:37;101873.25;;;8.98;84.92
65329;BME280;51941;52.210;5.158;2023-04-10T02:34:05;101870.16;;;8.95;85.03
65329;BME280;51941;52.210;5.158;2023-04-10T02:36:31;101870.38;;;8.93;85.55
65329;BME280;51941;52.210;5.158;2023-04-10T02:38:58;101863.28;;;8.94;85.08
65329;BME280;51941;52.210;5.158;2023-04-10T02:41:25;101865.09;;;8.93;85.44
65329;BME280;51941;52.210;5.158;2023-04-10T02:43:52;101865.28;;;8.92;85.28
65329;BME280;51941;52.210;5.158;2023-04-10T02:46:24;101869.31;;;8.88;86.65
65329;BME280;51941;52.210;5.158;2023-04-10T02:48:52;101873.59;;;8.89;86.57
65329;BME280;51941;52.210;5.158;2023-04-10T02:51:20;101881.47;;;8.82;87.14
65329;BME280;51941;52.210;5.158;2023-04-10T02:53:47;101876.59;;;8.86;86.66
65329;BME280;51941;52.210;5.158;2023-04-10T02:56:24;101878.66;;;8.84;86.70
65329;BME280;51941;52.210;5.158;2023-04-10T02:58:51;101882.66;;;8.79;88.03
65329;BME280;51941;52.210;5.158;2023-04-10T03:01:19;101882.47;;;8.81;87.03
65329;BME280;51941;52.210;5.158;2023-04-10T03:03:47;101854.31;;;8.60;87.09
65329;BME280;51941;52.210;5.158;2023-04-10T03:06:24;101877.56;;;8.78;87.24
65329;BME280;51941;52.210;5.158;2023-04-10T03:08:52;101873.09;;;8.78;87.35
65329;BME280;51941;52.210;5.158;2023-04-10T03:11:19;101873.09;;;8.78;86.86
65329;BME280;51941;52.210;5.158;2023-04-10T03:13:46;101876.56;;;8.79;87.12
65329;BME280;51941;52.210;5.158;2023-04-10T03:16:14;101877.56;;;8.78;86.70
65329;BME280;51941;52.210;5.158;2023-04-10T03:18:42;101839.88;;;8.56;86.66
65329;BME280;51941;52.210;5.158;2023-04-10T03:21:09;101870.44;;;8.72;86.80
65329;BME280;51941;52.210;5.158;2023-04-10T03:23:37;101872.69;;;8.75;86.74
65329;BME280;51941;52.210;5.158;2023-04-10T03:26:04;101869.44;;;8.73;87.00
65329;BME280;51941;52.210;5.158;2023-04-10T03:28:35;101860.69;;;8.72;86.76
65329;BME280;51941;52.210;5.158;2023-04-10T03:31:04;101860.69;;;8.72;86.50
65329;BME280;51941;52.210;5.158;2023-04-10T03:33:34;101858.88;;;8.73;86.34
65329;BME280;51941;52.210;5.158;2023-04-10T03:36:02;101839.91;;;8.63;86.50
65329;BME280;51941;52.210;5.158;2023-04-10T03:38:28;101859.25;;;8.70;86.98
65329;BME280;51941;52.210;5.158;2023-04-10T03:40:57;101850.31;;;8.71;86.87
65329;BME280;51941;52.210;5.158;2023-04-10T03:43:26;101812.38;;;8.44;86.89
65329;BME280;51941;52.210;5.158;2023-04-10T03:45:54;101845.22;;;8.69;86.52
65329;BME280;51941;52.210;5.158;2023-04-10T03:48:22;101851.31;;;8.70;86.69
65329;BME280;51941;52.210;5.158;2023-04-10T03:50:53;101847.06;;;8.69;86.68
65329;BME280;51941;52.210;5.158;2023-04-10T03:53:20;101779.44;;;8.33;86.68
65329;BME280;51941;52.210;5.158;2023-04-10T03:55:46;101840.97;;;8.68;86.46
65329;BME280;51941;52.210;5.158;2023-04-10T03:58:16;101820.44;;;8.64;86.76
65329;BME280;51941;52.210;5.158;2023-04-10T04:00:44;101827.75;;;8.68;86.63
65329;BME280;51941;52.210;5.158;2023-04-10T04:03:29;101823.72;;;8.66;86.93
65329;BME280;51941;52.210;5.158;2023-04-10T04:06:14;101828.78;;;8.67;86.89
65329;BME280;51941;52.210;5.158;2023-04-10T04:08:53;101832.44;;;8.66;86.76
65329;BME280;51941;52.210;5.158;2023-04-10T04:11:46;101824.72;;;8.65;86.58
65329;BME280;51941;52.210;5.158;2023-04-10T04:14:37;101816.78;;;8.65;86.27
65329;BME280;51941;52.210;5.158;2023-04-10T04:17:36;101820.44;;;8.64;86.65
65329;BME280;51941;52.210;5.158;2023-04-10T04:20:07;101816.34;;;8.61;86.46
65329;BME280;51941;52.210;5.158;2023-04-10T04:22:40;101816.97;;;8.63;86.28
65329;BME280;51941;52.210;5.158;2023-04-10T04:25:25;101816.34;;;8.61;86.72
65329;BME280;51941;52.210;5.158;2023-04-10T04:28:01;101809.06;;;8.63;86.25
65329;BME280;51941;52.210;5.158;2023-04-10T04:30:48;101807.63;;;8.61;86.39
65329;BME280;51941;52.210;5.158;2023-04-10T04:33:49;101804.78;;;8.62;86.27
65329;BME280;51941;52.210;5.158;2023-04-10T04:36:38;101794.63;;;8.59;86.32
65329;BME280;51941;52.210;5.158;2023-04-10T04:39:31;101798.06;;;8.60;86.45
65329;BME280;51941;52.210;5.158;2023-04-10T04:42:10;101793.19;;;8.57;86.59
65329;BME280;51941;52.210;5.158;2023-04-10T04:44:48;101793.38;;;8.55;87.06
65329;BME280;51941;52.210;5.158;2023-04-10T04:47:35;101789.13;;;8.54;86.68
65329;BME280;51941;52.210;5.158;2023-04-10T04:50:19;101794.56;;;8.53;86.69
65329;BME280;51941;52.210;5.158;2023-04-10T04:53:12;101802.91;;;8.50;87.00
65329;BME280;51941;52.210;5.158;2023-04-10T04:55:59;101789.25;;;8.46;87.40
65329;BME280;51941;52.210;5.158;2023-04-10T04:58:58;101792.28;;;8.43;88.16
65329;BME280;51941;52.210;5.158;2023-04-10T05:01:36;101749.72;;;8.18;88.50
65329;BME280;51941;52.210;5.158;2023-04-10T05:04:22;101779.28;;;8.41;88.41
65329;BME280;51941;52.210;5.158;2023-04-10T05:07:27;101758.28;;;8.27;88.42
65329;BME280;51941;52.210;5.158;2023-04-10T05:10:14;101780.69;;;8.37;89.12
65329;BME280;51941;52.210;5.158;2023-04-10T05:12:44;101785.16;;;8.37;89.44
65329;BME280;51941;52.210;5.158;2023-04-10T05:15:40;101780.66;;;8.31;90.11
65329;BME280;51941;52.210;5.158;2023-04-10T05:18:33;101752.16;;;8.20;89.50
65329;BME280;51941;52.210;5.158;2023-04-10T05:21:08;101785.59;;;8.40;89.72
65329;BME280;51941;52.210;5.158;2023-04-10T05:23:53;101778.28;;;8.42;89.88
65329;BME280;51941;52.210;5.158;2023-04-10T05:26:37;101774.47;;;8.52;89.47
65329;BME280;51941;52.210;5.158;2023-04-10T05:29:25;101776.09;;;8.53;89.42
65329;BME280;51941;52.210;5.158;2023-04-10T05:32:17;101738.28;;;8.39;89.08
65329;BME280;51941;52.210;5.158;2023-04-10T05:35:01;101773.56;;;8.66;88.83
65329;BME280;51941;52.210;5.158;2023-04-10T05:37:44;101779.44;;;8.68;88.71
65329;BME280;51941;52.210;5.158;2023-04-10T05:40:25;101781.06;;;8.69;88.65
65329;BME280;51941;52.210;5.158;2023-04-10T05:43:21;101730.19;;;8.40;88.33
65329;BME280;51941;52.210;5.158;2023-04-10T05:46:11;101779.53;;;8.81;87.83
65329;BME280;51941;52.210;5.158;2023-04-10T05:48:57;101760.19;;;8.74;87.51
65329;BME280;51941;52.210;5.158;2023-04-10T05:51:40;101750.25;;;8.76;87.18
65329;BME280;51941;52.210;5.158;2023-04-10T05:54:34;101761.88;;;8.88;86.88
65329;BME280;51941;52.210;5.158;2023-04-10T05:57:31;101752.31;;;8.87;86.64
65329;BME280;51941;52.210;5.158;2023-04-10T06:00:06;101774.16;;;9.02;86.23
65329;BME280;51941;52.210;5.158;2023-04-10T06:02:39;101770.06;;;9.06;85.61
65329;BME280;51941;52.210;5.158;2023-04-10T06:05:10;101754.22;;;9.06;85.27
65329;BME280;51941;52.210;5.158;2023-04-10T06:07:38;101750.22;;;9.17;84.70
65329;BME280;51941;52.210;5.158;2023-04-10T06:10:09;101746.41;;;9.20;84.38
65329;BME280;51941;52.210;5.158;2023-04-10T06:12:36;101744.16;;;9.23;84.04
65329;BME280;51941;52.210;5.158;2023-04-10T06:15:06;101741.94;;;9.33;83.51
65329;BME280;51941;52.210;5.158;2023-04-10T06:17:34;101749.28;;;9.38;83.09
65329;BME280;51941;52.210;5.158;2023-04-10T06:20:07;101752.34;;;9.48;82.88
65329;BME280;51941;52.210;5.158;2023-04-10T06:22:34;101752.13;;;9.49;81.84
65329;BME280;51941;52.210;5.158;2023-04-10T06:25:01;101740.56;;;9.57;81.47
65329;BME280;51941;52.210;5.158;2023-04-10T06:27:32;101733.03;;;9.61;80.79
65329;BME280;51941;52.210;5.158;2023-04-10T06:29:59;101630.72;;;9.08;80.21
65329;BME280;51941;52.210;5.158;2023-04-10T06:32:26;101721.25;;;9.70;79.24
65329;BME280;51941;52.210;5.158;2023-04-10T06:34:52;101719.03;;;9.80;79.07
65329;BME280;51941;52.210;5.158;2023-04-10T06:37:26;101716.59;;;9.78;77.45
65329;BME280;51941;52.210;5.158;2023-04-10T06:40:00;101709.03;;;9.95;77.78
65329;BME280;51941;52.210;5.158;2023-04-10T06:42:27;101704.78;;;10.07;77.69
65329;BME280;51941;52.210;5.158;2023-04-10T06:45:01;101705.13;;;10.17;77.04
65329;BME280;51941;52.210;5.158;2023-04-10T06:47:27;101640.31;;;9.88;76.00
65329;BME280;51941;52.210;5.158;2023-04-10T06:49:57;101688.25;;;10.25;75.03
65329;BME280;51941;52.210;5.158;2023-04-10T06:52:23;101658.94;;;10.20;74.28
65329;BME280;51941;52.210;5.158;2023-04-10T06:54:50;101677.19;;;10.48;74.27
65329;BME280;51941;52.210;5.158;2023-04-10T06:57:17;101671.25;;;10.52;73.39
65329;BME280;51941;52.210;5.158;2023-04-10T06:59:44;101665.94;;;10.59;72.53
65329;BME280;51941;52.210;5.158;2023-04-10T07:02:12;101676.09;;;10.68;72.65
65329;BME280;51941;52.210;5.158;2023-04-10T07:04:39;101664.84;;;10.73;71.10
65329;BME280;51941;52.210;5.158;2023-04-10T07:07:05;101667.69;;;10.85;71.10
65329;BME280;51941;52.210;5.158;2023-04-10T07:09:34;101658.63;;;10.99;70.63
65329;BME280;51941;52.210;5.158;2023-04-10T07:12:04;101664.69;;;11.13;69.04
65329;BME280;51941;52.210;5.158;2023-04-10T07:14:32;101656.88;;;11.18;68.32
65329;BME280;51941;52.210;5.158;2023-04-10T07:16:58;101649.00;;;11.36;68.19
65329;BME280;51941;52.210;5.158;2023-04-10T07:19:26;101632.22;;;11.42;67.94
65329;BME280;51941;52.210;5.158;2023-04-10T07:21:53;101641.44;;;11.64;65.60
65329;BME280;51941;52.210;5.158;2023-04-10T07:24:20;101638.00;;;11.82;65.25
65329;BME280;51941;52.210;5.158;2023-04-10T07:26:48;101633.81;;;11.93;64.34
65329;BME280;51941;52.210;5.158;2023-04-10T07:29:15;101606.53;;;12.04;63.50
65329;BME280;51941;52.210;5.158;2023-04-10T07:31:41;101622.56;;;12.34;61.88
65329;BME280;51941;52.210;5.158;2023-04-10T07:34:09;101628.94;;;12.63;61.74
65329;BME280;51941;52.210;5.158;2023-04-10T07:36:37;101630.59;;;12.75;60.28
65329;BME280;51941;52.210;5.158;2023-04-10T07:39:04;101632.28;;;13.00;59.90
65329;BME280;51941;52.210;5.158;2023-04-10T07:41:30;101621.81;;;13.16;58.58
65329;BME280;51941;52.210;5.158;2023-04-10T07:43:57;101613.72;;;13.11;56.50
65329;BME280;51941;52.210;5.158;2023-04-10T07:46:24;101605.53;;;13.36;57.05
65329;BME280;51941;52.210;5.158;2023-04-10T07:48:51;101601.53;;;13.45;56.48
65329;BME280;51941;52.210;5.158;2023-04-10T07:51:19;101596.53;;;13.37;55.89
65329;BME280;51941;52.210;5.158;2023-04-10T07:53:47;101595.41;;;13.45;55.73
65329;BME280;51941;52.210;5.158;2023-04-10T07:56:15;101606.63;;;13.47;55.74
65329;BME280;51941;52.210;5.158;2023-04-10T07:58:42;101609.41;;;13.40;55.06
65329;BME280;51941;52.210;5.158;2023-04-10T08:01:09;101605.13;;;13.39;55.31
65329;BME280;51941;52.210;5.158;2023-04-10T08:03:39;101583.91;;;13.21;55.52
65329;BME280;51941;52.210;5.158;2023-04-10T08:06:07;101577.78;;;13.09;55.28
65329;BME280;51941;52.210;5.158;2023-04-10T08:08:35;101597.25;;;13.32;55.75
65329;BME280;51941;52.210;5.158;2023-04-10T08:11:06;101600.00;;;13.38;54.97
65329;BME280;51941;52.210;5.158;2023-04-10T08:13:33;101571.19;;;13.35;54.69
65329;BME280;51941;52.210;5.158;2023-04-10T08:16:00;101586.63;;;13.56;54.29
65329;BME280;51941;52.210;5.158;2023-04-10T08:18:27;101581.53;;;13.66;53.93
65329;BME280;51941;52.210;5.158;2023-04-10T08:20:53;101566.47;;;13.72;53.99
65329;BME280;51941;52.210;5.158;2023-04-10T08:23:20;101572.47;;;13.90;54.05
65329;BME280;51941;52.210;5.158;2023-04-10T08:25:46;101570.72;;;13.96;53.77
65329;BME280;51941;52.210;5.158;2023-04-10T08:28:14;101565.31;;;13.91;53.36
65329;BME280;51941;52.210;5.158;2023-04-10T08:30:41;101568.69;;;13.86;53.36
65329;BME280;51941;52.210;5.158;2023-04-10T08:33:08;101555.84;;;13.72;53.16
65329;BME280;51941;52.210;5.158;2023-04-10T08:35:34;101548.00;;;13.65;53.63
65329;BME280;51941;52.210;5.158;2023-04-10T08:38:01;101549.47;;;13.73;54.04
65329;BME280;51941;52.210;5.158;2023-04-10T08:40:27;101478.28;;;13.40;54.05
65329;BME280;51941;52.210;5.158;2023-04-10T08:42:54;101543.13;;;13.74;53.58
65329;BME280;51941;52.210;5.158;2023-04-10T08:45:22;101537.72;;;13.68;53.92
65329;BME280;51941;52.210;5.158;2023-04-10T08:47:49;101545.22;;;13.60;54.13
65329;BME280;51941;52.210;5.158;2023-04-10T08:50:18;101544.53;;;13.53;54.89
65329;BME280;51941;52.210;5.158;2023-04-10T08:52:46;101504.50;;;13.36;54.78
65329;BME280;51941;52.210;5.158;2023-04-10T08:55:17;101543.16;;;13.50;55.00
65329;BME280;51941;52.210;5.158;2023-04-10T08:57:44;101538.66;;;13.51;55.53
65329;BME280;51941;52.210;5.158;2023-04-10T09:00:12;101539.34;;;13.58;55.23
65329;BME280;51941;52.210;5.158;2023-04-10T09:02:41;101535.88;;;13.57;55.47
65329;BME280;51941;52.210;5.158;2023-04-10T09:05:10;101533.06;;;13.64;55.64
65329;BME280;51941;52.210;5.158;2023-04-10T09:07:37;101483.03;;;13.49;55.69
65329;BME280;51941;52.210;5.158;2023-04-10T09:10:04;101514.44;;;13.64;56.19
65329;BME280;51941;52.210;5.158;2023-04-10T09:12:42;101509.94;;;13.64;56.05
65329;BME280;51941;52.210;5.158;2023-04-10T09:15:09;101509.72;;;13.66;56.30
65329;BME280;51941;52.210;5.158;2023-04-10T09:17:36;101508.88;;;13.77;56.34
65329;BME280;51941;52.210;5.158;2023-04-10T09:20:19;101487.47;;;13.72;56.11
65329;BME280;51941;52.210;5.158;2023-04-10T09:22:46;101504.69;;;13.81;56.19
65329;BME280;51941;52.210;5.158;2023-04-10T09:25:28;101497.25;;;13.95;55.72
65329;BME280;51941;52.210;5.158;2023-04-10T09:27:59;101486.47;;;14.01;55.49
65329;BME280;51941;52.210;5.158;2023-04-10T09:30:32;101493.50;;;14.07;54.82
65329;BME280;51941;52.210;5.158;2023-04-10T09:32:59;101482.84;;;14.07;54.93
65329;BME280;51941;52.210;5.158;2023-04-10T09:35:35;101475.47;;;13.98;54.58
65329;BME280;51941;52.210;5.158;2023-04-10T09:38:13;101457.16;;;13.85;54.59
65329;BME280;51941;52.210;5.158;2023-04-10T09:40:46;101467.69;;;14.08;54.77
65329;BME280;51941;52.210;5.158;2023-04-10T09:43:18;101466.84;;;14.19;54.53
65329;BME280;51941;52.210;5.158;2023-04-10T09:45:50;101439.00;;;14.27;53.86
65329;BME280;51941;52.210;5.158;2023-04-10T09:48:17;101460.06;;;14.57;53.45
65329;BME280;51941;52.210;5.158;2023-04-10T09:50:46;101458.22;;;14.74;52.97
65329;BME280;51941;52.210;5.158;2023-04-10T09:53:15;101448.75;;;14.83;52.88
65329;BME280;51941;52.210;5.158;2023-04-10T09:55:49;101448.16;;;14.98;52.83
65329;BME280;51941;52.210;5.158;2023-04-10T09:58:24;101415.16;;;14.82;52.26
65329;BME280;51941;52.210;5.158;2023-04-10T10:00:52;101412.88;;;14.91;51.60
65329;BME280;51941;52.210;5.158;2023-04-10T10:03:19;101435.88;;;14.97;51.49
65329;BME280;51941;52.210;5.158;2023-04-10T10:05:49;101424.56;;;15.06;51.47
65329;BME280;51941;52.210;5.158;2023-04-10T10:08:16;101430.75;;;15.12;51.71
65329;BME280;51941;52.210;5.158;2023-04-10T10:10:45;101400.81;;;15.05;51.51
65329;BME280;51941;52.210;5.158;2023-04-10T10:13:14;101418.03;;;15.19;51.68
65329;BME280;51941;52.210;5.158;2023-04-10T10:15:45;101403.91;;;15.18;51.47
65329;BME280;51941;52.210;5.158;2023-04-10T10:18:19;101397.41;;;15.31;51.27
65329;BME280;51941;52.210;5.158;2023-04-10T10:20:49;101408.63;;;15.33;50.68
65329;BME280;51941;52.210;5.158;2023-04-10T10:23:16;101395.06;;;15.35;50.93
65329;BME280;51941;52.210;5.158;2023-04-10T10:25:44;101374.41;;;15.25;50.70
65329;BME280;51941;52.210;5.158;2023-04-10T10:28:12;101390.94;;;15.49;50.57
65329;BME280;51941;52.210;5.158;2023-04-10T10:30:40;101347.91;;;15.40;50.16
65329;BME280;51941;52.210;5.158;2023-04-10T10:33:07;101366.72;;;15.55;49.95
65329;BME280;51941;52.210;5.158;2023-04-10T10:35:36;101378.22;;;15.78;49.17
65329;BME280;51941;52.210;5.158;2023-04-10T10:38:04;101365.94;;;15.77;49.35
65329;BME280;51941;52.210;5.158;2023-04-10T10:40:41;101364.31;;;15.76;49.51
65329;BME280;51941;52.210;5.158;2023-04-10T10:43:13;101368.81;;;15.97;49.47
65329;BME280;51941;52.210;5.158;2023-04-10T10:45:48;101332.41;;;15.91;48.62
65329;BME280;51941;52.210;5.158;2023-04-10T10:48:16;101360.19;;;16.22;48.68
65329;BME280;51941;52.210;5.158;2023-04-10T10:50:50;101338.13;;;16.37;48.80
65329;BME280;51941;52.210;5.158;2023-04-10T10:53:33;101350.28;;;16.54;48.52
65329;BME280;51941;52.210;5.158;2023-04-10T10:56:35;101342.50;;;16.53;47.85
65329;BME280;51941;52.210;5.158;2023-04-10T10:59:01;101329.25;;;16.63;48.38
65329;BME280;51941;52.210;5.158;2023-04-10T11:01:28;101322.34;;;16.77;48.61
65329;BME280;51941;52.210;5.158;2023-04-10T11:03:55;101316.00;;;16.83;48.31
65329;BME280;51941;52.210;5.158;2023-04-10T11:06:47;101311.97;;;16.81;48.32
65329;BME280;51941;52.210;5.158;2023-04-10T11:09:45;101299.09;;;16.73;48.10
65329;BME280;51941;52.210;5.158;2023-04-10T11:12:15;101284.75;;;16.47;48.38
65329;BME280;51941;52.210;5.158;2023-04-10T11:14:42;101299.59;;;16.64;48.88
65329;BME280;51941;52.210;5.158;2023-04-10T11:17:11;101288.66;;;16.71;48.96
65329;BME280;51941;52.210;5.158;2023-04-10T11:19:56;101267.31;;;16.76;48.85
65329;BME280;51941;52.210;5.158;2023-04-10T11:22:24;101294.16;;;17.01;48.33
65329;BME280;51941;52.210;5.158;2023-04-10T11:24:58;101262.00;;;16.91;48.02
65329;BME280;51941;52.210;5.158;2023-04-10T11:27:42;101282.69;;;17.16;47.66
65329;BME280;51941;52.210;5.158;2023-04-10T11:30:33;101233.72;;;17.11;47.32
65329;BME280;51941;52.210;5.158;2023-04-10T11:33:01;101235.06;;;17.23;47.15
65329;BME280;51941;52.210;5.158;2023-04-10T11:35:29;101253.31;;;17.47;47.13
65329;BME280;51941;52.210;5.158;2023-04-10T11:38:09;101249.06;;;17.61;47.02
65329;BME280;51941;52.210;5.158;2023-04-10T11:40:53;101252.28;;;17.68;46.86
65329;BME280;51941;52.210;5.158;2023-04-10T11:43:20;101250.66;;;17.97;46.94
65329;BME280;51941;52.210;5.158;2023-04-10T11:45:47;101247.16;;;18.02;46.66
65329;BME280;51941;52.210;5.158;2023-04-10T11:48:14;101250.66;;;18.02;46.21
65329;BME280;51941;52.210;5.158;2023-04-10T11:50:41;101249.34;;;17.90;46.52
65329;BME280;51941;52.210;5.158;2023-04-10T11:53:17;101233.25;;;18.00;46.38
65329;BME280;51941;52.210;5.158;2023-04-10T11:55:44;101228.13;;;18.13;46.52
65329;BME280;51941;52.210;5.158;2023-04-10T11:58:24;101197.63;;;18.04;46.52
65329;BME280;51941;52.210;5.158;2023-04-10T12:00:58;101214.44;;;18.20;46.35
65329;BME280;51941;52.210;5.158;2023-04-10T12:03:35;101182.66;;;17.88;46.21
65329;BME280;51941;52.210;5.158;2023-04-10T12:06:03;101202.19;;;17.99;46.29
65329;BME280;51941;52.210;5.158;2023-04-10T12:08:32;101163.41;;;17.71;46.57
65329;BME280;51941;52.210;5.158;2023-04-10T12:10:59;101200.84;;;17.96;46.59
65329;BME280;51941;52.210;5.158;2023-04-10T12:13:29;101192.56;;;17.98;46.83
65329;BME280;51941;52.210;5.158;2023-04-10T12:15:57;101192.84;;;17.81;46.51
65329;BME280;51941;52.210;5.158;2023-04-10T12:18:24;101183.47;;;17.68;46.22
65329;BME280;51941;52.210;5.158;2023-04-10T12:20:51;101172.50;;;17.70;46.99
65329;BME280;51941;52.210;5.158;2023-04-10T12:23:21;101169.28;;;17.68;47.15
65329;BME280;51941;52.210;5.158;2023-04-10T12:25:48;101161.50;;;17.56;47.58
65329;BME280;51941;52.210;5.158;2023-04-10T12:28:18;101174.38;;;17.54;47.48
65329;BME280;51941;52.210;5.158;2023-04-10T12:30:51;101161.25;;;17.37;48.24
65329;BME280;51941;52.210;5.158;2023-04-10T12:33:22;101147.88;;;17.32;48.63
65329;BME280;51941;52.210;5.158;2023-04-10T12:35:49;101143.31;;;17.28;48.58
65329;BME280;51941;52.210;5.158;2023-04-10T12:38:37;101136.63;;;17.25;48.99
65329;BME280;51941;52.210;5.158;2023-04-10T12:41:05;101125.13;;;17.15;49.69
65329;BME280;51941;52.210;5.158;2023-04-10T12:43:33;101129.13;;;17.07;49.75
65329;BME280;51941;52.210;5.158;2023-04-10T12:46:03;101121.63;;;16.99;49.77
65329;BME280;51941;52.210;5.158;2023-04-10T12:48:30;101111.47;;;16.96;49.90
65329;BME280;51941;52.210;5.158;2023-04-10T12:51:02;101110.91;;;16.89;50.34
65329;BME280;51941;52.210;5.158;2023-04-10T12:53:29;101099.94;;;16.80;50.64
65329;BME280;51941;52.210;5.158;2023-04-10T12:55:58;101080.97;;;16.66;50.83
65329;BME280;51941;52.210;5.158;2023-04-10T12:58:25;101101.03;;;16.74;51.48
65329;BME280;51941;52.210;5.158;2023-04-10T13:00:54;101105.78;;;16.62;52.38
65329;BME280;51941;52.210;5.158;2023-04-10T13:03:22;101095.34;;;16.60;52.28
65329;BME280;51941;52.210;5.158;2023-04-10T13:05:51;101091.59;;;16.61;52.63
65329;BME280;51941;52.210;5.158;2023-04-10T13:08:18;101093.97;;;16.53;52.84
65329;BME280;51941;52.210;5.158;2023-04-10T13:10:45;101091.84;;;16.50;53.27
65329;BME280;51941;52.210;5.158;2023-04-10T13:13:16;101061.09;;;16.32;53.55
65329;BME280;51941;52.210;5.158;2023-04-10T13:15:43;101091.84;;;16.55;54.58
65329;BME280;51941;52.210;5.158;2023-04-10T13:18:09;101092.66;;;16.60;54.99
65329;BME280;51941;52.210;5.158;2023-04-10T13:20:39;101090.03;;;16.65;56.20